Time;durP1;ratioP1;P1;durP2;ratioP2;P2;SDS_P1;SDS_P2;PMS_P1;PMS_P2;Temp;Humidity;BMP_temperature;BMP_pressure;BME280_temperature;BME280_humidity;BME280_pressure;Samples;Min_cycle;Max_cycle;Signal;HPM_P1;HPM_P2
2023/09/19 00:00:26;;;;;;;4.10;1.40;;;22.80;62.00;;;;;;5002836;28;20603;-44
2023/09/19 00:02:59;;;;;;;1.43;1.10;;;22.90;61.60;;;;;;5006484;28;20267;-44
2023/09/19 00:05:28;;;;;;;2.23;1.40;;;23.10;61.50;;;;;;5007931;28;20539;-48
2023/09/19 00:07:58;;;;;;;1.50;1.27;;;23.10;61.30;;;;;;5008931;28;20456;-44
2023/09/19 00:10:26;;;;;;;1.37;1.20;;;23.10;61.00;;;;;;5009877;28;21037;-44
2023/09/19 00:12:55;;;;;;;4.93;1.50;;;23.10;60.90;;;;;;5003335;28;20456;-44
2023/09/19 00:15:21;;;;;;;2.83;1.23;;;23.00;60.90;;;;;;5008317;28;20476;-44
2023/09/19 00:17:47;;;;;;;3.20;1.70;;;22.90;61.50;;;;;;5003587;28;20449;-44
2023/09/19 00:20:17;;;;;;;2.93;1.60;;;23.10;61.20;;;;;;5005540;28;20824;-44
2023/09/19 00:22:43;;;;;;;1.60;1.13;;;23.10;61.00;;;;;;5006769;28;20455;-45
2023/09/19 00:25:11;;;;;;;2.37;1.17;;;22.90;61.50;;;;;;5005396;28;21009;-47
2023/09/19 00:27:43;;;;;;;1.20;1.00;;;22.60;62.50;;;;;;5007791;28;20654;-45
2023/09/19 00:30:24;;;;;;;2.07;1.30;;;22.40;63.20;;;;;;5007580;28;20433;-45
2023/09/19 00:32:54;;;;;;;1.27;1.10;;;22.30;64.00;;;;;;4998754;28;20980;-46
2023/09/19 00:35:20;;;;;;;0.83;0.80;;;22.50;63.70;;;;;;5007896;28;20606;-45
2023/09/19 00:37:46;;;;;;;1.20;1.03;;;22.40;63.80;;;;;;5005935;28;20568;-45
2023/09/19 00:40:12;;;;;;;1.73;1.63;;;22.40;63.90;;;;;;4999722;28;20528;-47
2023/09/19 00:42:39;;;;;;;1.20;1.10;;;22.40;64.10;;;;;;4999222;28;20190;-48
2023/09/19 00:45:06;;;;;;;1.20;1.10;;;22.30;65.00;;;;;;5006350;28;20448;-45
2023/09/19 00:47:31;;;;;;;1.10;1.00;;;22.20;64.40;;;;;;5003946;28;20440;-44
2023/09/19 00:49:58;;;;;;;1.50;1.03;;;22.20;64.40;;;;;;5003161;28;21038;-44
2023/09/19 00:52:24;;;;;;;1.20;1.10;;;22.20;64.10;;;;;;5000248;28;20194;-46
2023/09/19 00:54:50;;;;;;;1.27;1.10;;;22.20;64.30;;;;;;5001044;28;20440;-47
2023/09/19 00:57:17;;;;;;;2.63;0.97;;;22.30;63.90;;;;;;5002868;28;20491;-45
2023/09/19 00:59:43;;;;;;;1.50;1.03;;;22.20;64.10;;;;;;4997859;28;20491;-44
2023/09/19 01:02:09;;;;;;;1.40;1.30;;;22.20;64.10;;;;;;4997064;28;21225;-44
2023/09/19 01:04:35;;;;;;;1.70;0.90;;;22.40;63.90;;;;;;4997595;28;20506;-44
2023/09/19 01:07:00;;;;;;;2.20;1.20;;;22.60;63.30;;;;;;5003521;28;20328;-44
2023/09/19 01:09:26;;;;;;;1.83;1.10;;;22.50;63.10;;;;;;5001125;28;20630;-50
2023/09/19 01:11:57;;;;;;;1.80;1.10;;;22.50;63.00;;;;;;5008589;28;20233;-46
2023/09/19 01:14:55;;;;;;;2.00;1.17;;;22.40;63.20;;;;;;4997953;28;20441;-44
2023/09/19 01:17:30;;;;;;;1.33;1.03;;;22.30;63.10;;;;;;5006822;28;20484;-44
2023/09/19 01:20:23;;;;;;;1.10;1.10;;;22.20;63.60;;;;;;4999855;28;20498;-45
2023/09/19 01:23:07;;;;;;;1.33;1.23;;;22.00;64.00;;;;;;5009070;28;20491;-44
2023/09/19 01:25:39;;;;;;;1.73;1.00;;;21.90;64.60;;;;;;5001624;28;20452;-46
2023/09/19 01:28:10;;;;;;;1.33;1.23;;;22.10;64.30;;;;;;4999147;28;20492;-45
2023/09/19 01:30:43;;;;;;;1.27;1.10;;;22.20;63.40;;;;;;4999120;28;20463;-47
2023/09/19 01:33:10;;;;;;;0.90;0.90;;;22.10;63.70;;;;;;5001855;28;20444;-45
2023/09/19 01:35:38;;;;;;;1.10;0.90;;;22.20;63.30;;;;;;5007939;28;20563;-44
2023/09/19 01:38:07;;;;;;;1.90;1.17;;;22.10;63.10;;;;;;5006779;28;20977;-45
2023/09/19 01:40:40;;;;;;;1.33;1.00;;;22.20;62.90;;;;;;5000495;28;20527;-45
2023/09/19 01:43:19;;;;;;;1.20;1.10;;;22.20;63.00;;;;;;5003620;28;20440;-44
2023/09/19 01:46:04;;;;;;;1.40;1.30;;;22.20;63.00;;;;;;4996539;28;20839;-46
2023/09/19 01:48:30;;;;;;;1.30;1.07;;;22.10;62.50;;;;;;5000143;28;20452;-46
2023/09/19 01:51:05;;;;;;;1.03;0.93;;;22.10;63.00;;;;;;5001200;28;20489;-43
2023/09/19 01:53:51;;;;;;;1.27;0.90;;;22.10;63.00;;;;;;5000898;28;20485;-44
2023/09/19 01:56:22;;;;;;;1.70;1.10;;;22.30;62.60;;;;;;5006678;28;20488;-44
2023/09/19 01:58:50;;;;;;;2.80;1.20;;;22.20;63.20;;;;;;5001121;28;20988;-46
2023/09/19 02:01:22;;;;;;;2.30;1.40;;;22.20;62.70;;;;;;5001148;28;20928;-46
2023/09/19 02:03:49;;;;;;;1.07;1.00;;;21.90;63.30;;;;;;4995530;28;20507;-44
2023/09/19 02:06:17;;;;;;;1.10;1.00;;;21.90;63.10;;;;;;5000766;28;20635;-46
2023/09/19 02:08:43;;;;;;;1.50;1.27;;;22.00;63.00;;;;;;4998493;28;21005;-44
2023/09/19 02:11:08;;;;;;;2.47;1.20;;;21.90;63.30;;;;;;5002796;28;20446;-45
2023/09/19 02:13:34;;;;;;;1.13;1.07;;;22.00;62.80;;;;;;5012602;28;20209;-44
2023/09/19 02:16:00;;;;;;;1.17;1.07;;;22.00;62.80;;;;;;5008207;28;20316;-46
2023/09/19 02:18:28;;;;;;;1.63;1.13;;;22.00;62.60;;;;;;5004752;28;20204;-47
2023/09/19 02:20:54;;;;;;;1.63;1.40;;;22.20;62.00;;;;;;5010380;28;20441;-44
2023/09/19 02:23:20;;;;;;;1.93;0.90;;;22.00;62.10;;;;;;5011761;28;20518;-44
2023/09/19 02:25:58;;;;;;;1.27;1.17;;;22.00;62.50;;;;;;5005870;28;20477;-45
2023/09/19 02:28:24;;;;;;;1.27;1.00;;;22.00;62.10;;;;;;5010342;28;20456;-44
2023/09/19 02:30:50;;;;;;;1.10;0.80;;;22.10;62.40;;;;;;5009128;28;20467;-44
2023/09/19 02:33:17;;;;;;;2.37;1.40;;;22.10;61.90;;;;;;5001506;28;20192;-44
2023/09/19 02:35:42;;;;;;;1.10;1.00;;;22.10;61.80;;;;;;5005075;28;20271;-46
2023/09/19 02:38:11;;;;;;;2.00;1.07;;;22.20;61.80;;;;;;5011394;28;20452;-44
2023/09/19 02:40:37;;;;;;;0.80;0.80;;;22.20;61.60;;;;;;5010317;28;20194;-44
2023/09/19 02:43:03;;;;;;;2.50;1.20;;;22.30;61.60;;;;;;5010791;28;20463;-45
2023/09/19 02:45:29;;;;;;;1.23;1.13;;;22.40;61.30;;;;;;5003132;28;20212;-46
2023/09/19 02:47:55;;;;;;;0.80;0.80;;;22.50;60.90;;;;;;5007634;28;20456;-45
2023/09/19 02:50:21;;;;;;;1.50;1.10;;;22.60;60.60;;;;;;5005588;28;20441;-44
2023/09/19 02:52:50;;;;;;;1.17;1.07;;;22.50;60.60;;;;;;5009508;28;20783;-46
2023/09/19 02:55:19;;;;;;;2.30;1.37;;;22.60;60.50;;;;;;5006574;28;20198;-47
2023/09/19 02:57:52;;;;;;;1.53;1.43;;;22.50;60.80;;;;;;5012297;28;20543;-48
2023/09/19 03:00:22;;;;;;;1.80;1.40;;;22.50;60.60;;;;;;5012493;28;20472;-44
2023/09/19 03:02:49;;;;;;;1.40;1.30;;;22.40;60.70;;;;;;5005292;28;20488;-44
2023/09/19 03:05:15;;;;;;;1.27;1.17;;;22.40;60.90;;;;;;5010111;28;20453;-45
2023/09/19 03:07:42;;;;;;;2.50;1.20;;;22.40;61.10;;;;;;5007698;28;22281;-44
2023/09/19 03:10:09;;;;;;;1.53;1.10;;;22.40;61.10;;;;;;5010778;28;20596;-44
2023/09/19 03:12:35;;;;;;;1.33;1.23;;;22.40;61.40;;;;;;5006356;28;20518;-46
2023/09/19 03:15:01;;;;;;;1.70;0.93;;;22.30;61.20;;;;;;5009068;28;20952;-46
2023/09/19 03:17:27;;;;;;;5.97;0.93;;;22.40;60.90;;;;;;5010732;28;20453;-45
2023/09/19 03:19:53;;;;;;;1.60;1.13;;;22.30;61.10;;;;;;5011796;28;20449;-45
2023/09/19 03:22:19;;;;;;;1.20;1.03;;;22.30;61.30;;;;;;5008119;28;20449;-45
2023/09/19 03:24:46;;;;;;;1.30;1.20;;;22.50;61.30;;;;;;5000754;28;20500;-45
2023/09/19 03:27:15;;;;;;;2.27;1.00;;;22.70;60.90;;;;;;5005585;28;20244;-44
2023/09/19 03:29:42;;;;;;;2.00;1.00;;;22.70;60.50;;;;;;5012339;28;20960;-44
2023/09/19 03:32:10;;;;;;;1.40;1.30;;;22.80;60.60;;;;;;5008346;28;20445;-45
2023/09/19 03:34:38;;;;;;;1.27;1.17;;;23.00;60.50;;;;;;5008823;28;20968;-48
2023/09/19 03:37:03;;;;;;;1.30;0.97;;;23.10;60.30;;;;;;5005841;28;20489;-44
2023/09/19 03:39:29;;;;;;;1.20;0.80;;;23.20;60.30;;;;;;5003570;28;20444;-45
2023/09/19 03:41:55;;;;;;;1.97;1.37;;;23.40;60.20;;;;;;5003227;28;20194;-46
2023/09/19 03:44:20;;;;;;;2.00;1.33;;;23.40;59.10;;;;;;5007336;28;20221;-44
2023/09/19 03:46:46;;;;;;;2.60;1.00;;;23.50;59.20;;;;;;5006719;28;20273;-44
2023/09/19 03:49:12;;;;;;;1.10;0.93;;;23.50;59.20;;;;;;5008683;28;20676;-45
2023/09/19 03:51:37;;;;;;;1.20;1.00;;;23.60;59.30;;;;;;5007581;28;20652;-46
2023/09/19 03:54:04;;;;;;;1.10;1.00;;;23.60;58.80;;;;;;5001672;28;20186;-45
2023/09/19 03:56:29;;;;;;;1.10;1.00;;;23.60;59.00;;;;;;5004520;28;20226;-44
2023/09/19 03:58:55;;;;;;;1.50;1.40;;;23.60;58.90;;;;;;4999538;28;20449;-44
2023/09/19 04:01:20;;;;;;;1.93;1.23;;;23.40;58.70;;;;;;5004384;28;20260;-47
2023/09/19 04:03:47;;;;;;;2.47;1.23;;;23.10;58.70;;;;;;5006110;28;20225;-45
2023/09/19 04:06:14;;;;;;;2.30;1.10;;;23.00;59.20;;;;;;5013468;28;20239;-44
2023/09/19 04:08:40;;;;;;;1.20;1.10;;;23.10;59.30;;;;;;5006359;28;20554;-45
2023/09/19 04:11:05;;;;;;;1.20;1.10;;;23.20;59.10;;;;;;5002521;28;20531;-45
2023/09/19 04:13:31;;;;;;;1.10;1.00;;;23.20;58.90;;;;;;5001127;28;20194;-44
2023/09/19 04:15:56;;;;;;;1.27;1.10;;;23.20;59.00;;;;;;5008454;28;20234;-47
2023/09/19 04:18:23;;;;;;;2.00;1.40;;;23.20;59.00;;;;;;5004806;28;20201;-46
2023/09/19 04:20:52;;;;;;;0.90;0.90;;;23.00;59.30;;;;;;5003558;28;20194;-46
2023/09/19 04:23:20;;;;;;;1.20;1.00;;;22.90;60.20;;;;;;5005757;28;20551;-44
2023/09/19 04:25:46;;;;;;;1.13;1.03;;;22.90;60.80;;;;;;5004477;28;20448;-50
2023/09/19 04:28:11;;;;;;;2.90;1.13;;;23.00;60.70;;;;;;5006667;28;20433;-44
2023/09/19 04:30:40;;;;;;;1.30;1.03;;;23.10;60.60;;;;;;4998546;28;20742;-46
2023/09/19 04:33:06;;;;;;;2.10;1.10;;;23.30;60.70;;;;;;5001345;28;20219;-44
2023/09/19 04:35:32;;;;;;;2.50;1.10;;;23.40;60.70;;;;;;5007683;28;20472;-45
2023/09/19 04:37:58;;;;;;;2.30;1.30;;;23.60;60.70;;;;;;5005142;28;20535;-45
2023/09/19 04:40:26;;;;;;;1.70;1.60;;;23.70;60.20;;;;;;5006999;28;20850;-44
2023/09/19 04:42:56;;;;;;;5.63;1.27;;;23.90;60.10;;;;;;5003906;28;20197;-45
2023/09/19 04:45:22;;;;;;;3.90;1.20;;;24.00;59.90;;;;;;5001608;28;20452;-44
2023/09/19 04:47:48;;;;;;;1.40;1.30;;;24.00;59.80;;;;;;4999041;28;20441;-47
2023/09/19 04:50:14;;;;;;;2.20;1.10;;;24.10;59.30;;;;;;5002086;28;20995;-44
2023/09/19 04:52:42;;;;;;;3.00;1.90;;;24.20;59.10;;;;;;5007410;28;20221;-46
2023/09/19 04:55:09;;;;;;;3.00;1.50;;;24.20;59.30;;;;;;5007768;28;20200;-45
2023/09/19 04:57:36;;;;;;;2.50;1.30;;;24.20;59.20;;;;;;5008232;28;20564;-44
2023/09/19 05:00:06;;;;;;;1.33;1.20;;;24.20;59.00;;;;;;5008423;28;20433;-44
2023/09/19 05:02:34;;;;;;;2.20;1.30;;;24.30;59.00;;;;;;5007213;28;20559;-46
2023/09/19 05:05:00;;;;;;;2.07;1.13;;;24.20;59.10;;;;;;5008004;28;20794;-48
2023/09/19 05:07:26;;;;;;;2.13;1.10;;;24.20;59.40;;;;;;5002669;28;20445;-44
2023/09/19 05:09:51;;;;;;;1.60;1.50;;;24.30;59.40;;;;;;5005485;28;20214;-46
2023/09/19 05:12:19;;;;;;;1.57;1.40;;;24.30;59.20;;;;;;5009654;28;20877;-44
2023/09/19 05:14:45;;;;;;;3.33;2.10;;;24.40;59.30;;;;;;5011022;28;20191;-44
2023/09/19 05:17:10;;;;;;;2.83;1.20;;;24.40;58.90;;;;;;5010552;28;20499;-44
2023/09/19 05:19:38;;;;;;;2.77;1.73;;;24.30;58.60;;;;;;5007472;28;20216;-44
2023/09/19 05:22:04;;;;;;;2.23;1.40;;;24.30;58.60;;;;;;5005414;28;20225;-45
2023/09/19 05:24:30;;;;;;;3.20;1.77;;;24.20;59.10;;;;;;5008952;28;20441;-44
2023/09/19 05:26:56;;;;;;;5.20;1.43;;;23.80;59.90;;;;;;5010414;28;20198;-45
2023/09/19 05:29:22;;;;;;;2.37;1.50;;;23.60;61.10;;;;;;5011359;28;20479;-46
2023/09/19 05:31:49;;;;;;;1.90;1.30;;;23.40;61.90;;;;;;5010069;28;21276;-44
2023/09/19 05:34:15;;;;;;;1.70;1.40;;;23.40;61.90;;;;;;5006213;28;20280;-45
2023/09/19 05:36:41;;;;;;;1.43;1.20;;;23.50;62.40;;;;;;5000319;28;20488;-44
2023/09/19 05:39:09;;;;;;;2.03;1.37;;;23.40;62.70;;;;;;5009815;28;20190;-50
2023/09/19 05:41:36;;;;;;;1.73;1.50;;;23.30;62.70;;;;;;5008912;28;20528;-47
2023/09/19 05:44:03;;;;;;;1.80;1.57;;;23.30;63.20;;;;;;5005112;28;20464;-45
2023/09/19 05:46:29;;;;;;;1.33;1.23;;;23.30;63.60;;;;;;5000820;28;20456;-45
2023/09/19 05:48:58;;;;;;;1.50;1.20;;;23.20;64.20;;;;;;5001132;28;20449;-44
2023/09/19 05:51:25;;;;;;;3.30;1.60;;;23.00;64.70;;;;;;4994966;28;20444;-45
2023/09/19 05:53:50;;;;;;;2.33;1.50;;;22.90;65.40;;;;;;5008201;28;20440;-44
2023/09/19 05:56:18;;;;;;;3.87;1.10;;;22.90;65.60;;;;;;5009438;28;20488;-47
2023/09/19 05:58:44;;;;;;;2.80;1.63;;;22.70;66.20;;;;;;4988379;28;20211;-45
2023/09/19 06:01:10;;;;;;;1.87;1.70;;;22.60;67.20;;;;;;5008276;28;20499;-44
2023/09/19 06:03:35;;;;;;;1.50;1.40;;;22.50;67.70;;;;;;5007879;28;20237;-47
2023/09/19 06:06:02;;;;;;;3.47;1.67;;;22.50;67.80;;;;;;5007977;28;20444;-46
2023/09/19 06:08:28;;;;;;;2.57;1.80;;;22.50;68.10;;;;;;5008813;28;20209;-45
2023/09/19 06:10:54;;;;;;;1.93;1.40;;;22.50;68.00;;;;;;5002150;28;20469;-44
2023/09/19 06:13:19;;;;;;;2.10;1.77;;;22.10;67.80;;;;;;5009672;28;20448;-44
2023/09/19 06:15:47;;;;;;;4.13;1.87;;;21.80;67.60;;;;;;5009141;28;20272;-45
2023/09/19 06:18:19;;;;;;;3.43;1.70;;;21.40;68.50;;;;;;5008028;28;20213;-46
2023/09/19 06:20:50;;;;;;;1.60;1.50;;;21.30;68.70;;;;;;5008824;28;20460;-45
2023/09/19 06:23:17;;;;;;;2.07;1.53;;;21.20;67.40;;;;;;5010090;28;20469;-47
2023/09/19 06:25:45;;;;;;;3.83;1.70;;;21.00;66.30;;;;;;5007985;28;20453;-44
2023/09/19 06:28:14;;;;;;;6.03;1.80;;;20.70;65.20;;;;;;5008817;28;20468;-49
2023/09/19 06:30:40;;;;;;;1.67;1.57;;;20.60;64.70;;;;;;5008611;28;20933;-47
2023/09/19 06:33:06;;;;;;;1.97;1.77;;;20.70;65.30;;;;;;5005839;28;20456;-49
2023/09/19 06:35:33;;;;;;;4.07;1.93;;;20.90;65.50;;;;;;5002061;28;20229;-45
2023/09/19 06:38:02;;;;;;;2.00;1.63;;;20.90;65.30;;;;;;5004050;28;20514;-46
2023/09/19 06:40:30;;;;;;;5.53;2.00;;;21.00;65.60;;;;;;5003323;28;20460;-45
2023/09/19 06:42:56;;;;;;;2.37;2.17;;;21.20;66.30;;;;;;5009672;28;20445;-45
2023/09/19 06:45:22;;;;;;;2.40;2.00;;;21.30;65.60;;;;;;5006855;28;20614;-45
2023/09/19 06:47:50;;;;;;;2.00;1.90;;;21.40;65.30;;;;;;5010054;28;20213;-44
2023/09/19 06:50:21;;;;;;;3.93;2.00;;;21.50;65.30;;;;;;4995633;28;20445;-46
2023/09/19 06:52:49;;;;;;;7.50;2.20;;;21.70;65.20;;;;;;5001452;28;22162;-47
2023/09/19 06:55:16;;;;;;;5.80;2.00;;;21.80;65.10;;;;;;5004106;28;20457;-47
2023/09/19 06:57:43;;;;;;;3.23;2.27;;;21.90;64.90;;;;;;5009365;28;20587;-46
2023/09/19 07:00:15;;;;;;;4.10;2.30;;;22.00;64.90;;;;;;5010122;28;20455;-48
2023/09/19 07:02:42;;;;;;;3.47;2.10;;;22.10;64.80;;;;;;5003550;28;20980;-46
2023/09/19 07:05:08;;;;;;;3.30;2.10;;;22.20;64.80;;;;;;4993353;28;20445;-49
2023/09/19 07:07:34;;;;;;;5.30;2.20;;;22.20;64.60;;;;;;4995955;28;20863;-46
2023/09/19 07:10:01;;;;;;;4.37;2.43;;;22.40;64.50;;;;;;5005216;28;20190;-48
2023/09/19 07:12:26;;;;;;;3.73;2.37;;;22.50;64.60;;;;;;5009519;28;20476;-47
2023/09/19 07:14:52;;;;;;;5.27;2.17;;;22.40;64.40;;;;;;5010976;28;20608;-49
2023/09/19 07:17:18;;;;;;;3.10;2.40;;;22.60;64.80;;;;;;5006668;28;20230;-47
2023/09/19 07:19:45;;;;;;;2.17;1.80;;;22.60;64.60;;;;;;4997584;28;20185;-46
2023/09/19 07:22:10;;;;;;;3.37;2.23;;;22.70;64.10;;;;;;5001475;28;20473;-48
2023/09/19 07:24:36;;;;;;;4.43;2.10;;;22.90;63.50;;;;;;5013433;28;20457;-50
2023/09/19 07:27:02;;;;;;;3.20;2.10;;;23.10;63.10;;;;;;5012910;28;20205;-46
2023/09/19 07:29:28;;;;;;;3.17;2.17;;;23.10;62.10;;;;;;5009302;28;20198;-47
2023/09/19 07:31:53;;;;;;;3.70;2.20;;;23.30;62.50;;;;;;5006866;28;20440;-48
2023/09/19 07:34:21;;;;;;;4.47;1.90;;;23.20;62.10;;;;;;5011729;28;20202;-46
2023/09/19 07:36:47;;;;;;;4.30;2.00;;;23.20;62.20;;;;;;5003809;28;20230;-49
2023/09/19 07:39:13;;;;;;;4.53;1.67;;;23.20;61.00;;;;;;5012800;28;20433;-49
2023/09/19 07:41:39;;;;;;;3.83;2.17;;;22.80;61.60;;;;;;5007774;28;20209;-51
2023/09/19 07:44:05;;;;;;;3.53;1.80;;;22.90;62.10;;;;;;5010017;28;20449;-46
2023/09/19 07:46:31;;;;;;;2.60;2.00;;;22.90;61.90;;;;;;5009573;28;20312;-46
2023/09/19 07:48:57;;;;;;;2.23;1.87;;;23.00;61.90;;;;;;5011917;28;20228;-45
2023/09/19 07:51:23;;;;;;;2.50;1.70;;;23.10;62.20;;;;;;5007373;28;20476;-48
2023/09/19 07:53:48;;;;;;;6.93;1.97;;;23.20;62.00;;;;;;5009783;28;20472;-46
2023/09/19 07:56:14;;;;;;;4.70;1.80;;;23.20;62.20;;;;;;5009197;28;20225;-44
2023/09/19 07:58:43;;;;;;;5.70;2.00;;;23.30;61.60;;;;;;5007963;28;20961;-46
2023/09/19 08:01:10;;;;;;;4.60;1.90;;;23.50;61.30;;;;;;5008708;28;20433;-45
2023/09/19 08:03:40;;;;;;;3.03;2.03;;;23.60;61.10;;;;;;5009577;28;20477;-46
2023/09/19 08:06:06;;;;;;;2.47;2.00;;;23.60;59.70;;;;;;5006990;28;20502;-44
2023/09/19 08:08:34;;;;;;;3.27;1.53;;;23.50;59.40;;;;;;5001153;28;21014;-44
2023/09/19 08:11:01;;;;;;;5.10;2.10;;;23.30;58.90;;;;;;5006476;28;20436;-44
2023/09/19 08:13:26;;;;;;;2.90;1.57;;;23.50;59.30;;;;;;5007944;28;20532;-44
2023/09/19 08:15:56;;;;;;;3.70;2.07;;;23.70;59.40;;;;;;5002563;28;20577;-46
2023/09/19 08:18:22;;;;;;;3.63;2.13;;;23.60;59.20;;;;;;5012395;28;20197;-46
2023/09/19 08:20:52;;;;;;;1.87;1.53;;;23.50;58.90;;;;;;4995599;28;20451;-46
2023/09/19 08:23:19;;;;;;;3.20;1.77;;;23.40;59.70;;;;;;5005701;28;20451;-45
2023/09/19 08:25:46;;;;;;;3.27;1.47;;;23.50;59.60;;;;;;5005065;28;20453;-46
2023/09/19 08:28:18;;;;;;;3.00;1.93;;;23.40;58.80;;;;;;5007126;28;20457;-44
2023/09/19 08:30:47;;;;;;;2.70;1.60;;;23.60;58.90;;;;;;5005648;28;20535;-45
2023/09/19 08:33:15;;;;;;;1.53;1.43;;;23.60;58.40;;;;;;5009125;28;20561;-45
2023/09/19 08:35:43;;;;;;;2.33;1.53;;;23.70;58.90;;;;;;5006567;28;20475;-45
2023/09/19 08:38:10;;;;;;;1.90;1.70;;;24.00;59.10;;;;;;5006617;28;20459;-45
2023/09/19 08:40:41;;;;;;;3.23;1.50;;;24.20;58.50;;;;;;5010893;28;20810;-45
2023/09/19 08:43:07;;;;;;;3.53;1.60;;;24.30;57.90;;;;;;5007019;28;20511;-48
2023/09/19 08:45:34;;;;;;;2.67;1.70;;;24.40;56.80;;;;;;5007504;28;20551;-46
2023/09/19 08:48:15;;;;;;;2.57;1.50;;;24.60;56.80;;;;;;5002580;28;20979;-45
2023/09/19 08:50:50;;;;;;;2.70;1.70;;;24.30;55.00;;;;;;5004369;28;20460;-45
2023/09/19 08:53:50;;;;;;;2.40;1.63;;;24.30;55.60;;;;;;5004619;28;20455;-46
2023/09/19 08:56:18;;;;;;;3.13;1.83;;;24.40;56.00;;;;;;5008805;28;20492;-49
2023/09/19 08:58:53;;;;;;;2.07;1.90;;;24.30;55.40;;;;;;5006919;28;21074;-45
2023/09/19 09:01:24;;;;;;;2.10;1.90;;;24.10;55.70;;;;;;5003393;28;20480;-47
2023/09/19 09:03:52;;;;;;;1.60;1.40;;;24.00;56.10;;;;;;5005530;28;20521;-48
2023/09/19 09:06:20;;;;;;;2.10;1.90;;;24.10;55.80;;;;;;5008000;28;20540;-47
2023/09/19 09:08:46;;;;;;;1.80;1.63;;;24.00;55.80;;;;;;5010325;28;20436;-52
2023/09/19 09:11:14;;;;;;;3.67;1.37;;;24.30;55.00;;;;;;5004625;28;20437;-48
2023/09/19 09:13:41;;;;;;;1.63;1.53;;;24.30;55.80;;;;;;5009964;28;20467;-48
2023/09/19 09:16:07;;;;;;;3.27;1.60;;;24.40;55.00;;;;;;5000935;28;20495;-52
2023/09/19 09:18:33;;;;;;;3.83;1.37;;;24.30;54.70;;;;;;5006654;28;20449;-48
2023/09/19 09:20:58;;;;;;;1.70;1.60;;;24.20;55.40;;;;;;5009785;28;20460;-51
2023/09/19 09:25:56;;;;;;;5.13;1.47;;;24.30;54.10;;;;;;4978353;28;20268;-47
2023/09/19 09:28:23;;;;;;;1.17;1.17;;;24.20;53.30;;;;;;4990448;28;21559;-49
2023/09/19 09:30:50;;;;;;;3.40;1.50;;;24.40;53.30;;;;;;4990044;28;20504;-46
2023/09/19 09:33:16;;;;;;;3.20;1.00;;;24.50;53.00;;;;;;4989751;28;20797;-49
2023/09/19 09:35:53;;;;;;;1.50;1.40;;;24.60;52.30;;;;;;4983187;28;20486;-45
2023/09/19 09:38:20;;;;;;;1.60;1.30;;;24.60;50.70;;;;;;4986434;28;20454;-48
2023/09/19 09:40:58;;;;;;;1.40;1.10;;;24.40;51.50;;;;;;4985142;28;20456;-48
2023/09/19 09:43:35;;;;;;;2.93;1.70;;;24.60;51.50;;;;;;4986874;28;20453;-46
2023/09/19 09:46:58;;;;;;;1.53;1.43;;;24.70;50.20;;;;;;4976765;28;20453;-48
2023/09/19 09:49:15;;;;;;;1.50;1.40;;;24.50;50.60;;;;;;4988519;28;20541;-47
2023/09/19 09:51:43;;;;;;;2.53;1.17;;;24.20;49.80;;;;;;4990109;28;20529;-46
2023/09/19 09:54:14;;;;;;;2.80;1.50;;;23.90;49.50;;;;;;4981402;28;21224;-46
2023/09/19 09:57:23;;;;;;;1.53;1.43;;;24.00;50.30;;;;;;4978613;28;20564;-46
2023/09/19 09:59:53;;;;;;;1.83;1.50;;;24.20;49.50;;;;;;4982389;28;20473;-47
2023/09/19 10:02:44;;;;;;;2.10;1.50;;;24.60;50.60;;;;;;4989348;28;20445;-46
2023/09/19 10:07:52;;;;;;;1.53;1.37;;;24.80;47.90;;;;;;4988774;28;20828;-46
2023/09/19 10:10:45;;;;;;;2.20;1.30;;;25.10;49.10;;;;;;4982174;28;20450;-47
2023/09/19 10:13:13;;;;;;;1.80;1.50;;;25.30;48.30;;;;;;4982156;28;20457;-49
2023/09/19 10:15:48;;;;;;;3.67;2.00;;;25.50;48.30;;;;;;4979599;28;20833;-46
2023/09/19 10:18:18;;;;;;;2.07;1.30;;;25.50;47.20;;;;;;4989386;28;20457;-50
2023/09/19 10:20:45;;;;;;;2.20;2.00;;;25.70;46.60;;;;;;4988346;28;20453;-45
2023/09/19 10:23:15;;;;;;;1.40;1.20;;;26.00;47.00;;;;;;4969866;28;20453;-49
2023/09/19 10:25:46;;;;;;;2.10;1.37;;;26.30;46.70;;;;;;4989496;28;20535;-48
2023/09/19 10:28:13;;;;;;;2.00;1.47;;;26.40;45.70;;;;;;4982503;28;20461;-45
2023/09/19 10:30:47;;;;;;;1.67;1.30;;;26.30;45.30;;;;;;4982185;28;20477;-47
2023/09/19 10:33:14;;;;;;;2.83;1.53;;;26.10;45.60;;;;;;4987718;28;20485;-47
2023/09/19 10:35:43;;;;;;;2.50;1.97;;;26.10;45.70;;;;;;4992893;28;20507;-47
2023/09/19 10:38:16;;;;;;;1.90;1.77;;;26.20;45.90;;;;;;4993997;28;20453;-47
2023/09/19 10:40:43;;;;;;;2.90;1.57;;;26.10;45.00;;;;;;4994388;28;21058;-47
2023/09/19 10:43:17;;;;;;;2.03;1.33;;;25.80;45.20;;;;;;4989886;28;20890;-47
2023/09/19 10:45:45;;;;;;;2.20;1.50;;;25.70;45.00;;;;;;4985420;28;20465;-49
2023/09/19 10:48:12;;;;;;;2.30;1.63;;;25.90;45.70;;;;;;4986854;28;20480;-46
2023/09/19 10:50:44;;;;;;;2.07;1.60;;;25.90;45.20;;;;;;4983718;28;20446;-47
2023/09/19 10:53:12;;;;;;;2.30;1.57;;;25.90;45.30;;;;;;4995266;28;20433;-48
2023/09/19 10:55:38;;;;;;;2.40;1.30;;;26.10;44.50;;;;;;4993794;28;20491;-45
2023/09/19 10:58:14;;;;;;;1.83;1.20;;;26.10;43.90;;;;;;4991761;28;21136;-45
2023/09/19 11:00:54;;;;;;;1.93;1.43;;;26.30;43.90;;;;;;4995071;28;20429;-47
2023/09/19 11:03:29;;;;;;;1.50;1.40;;;26.00;42.90;;;;;;4991132;28;20728;-46
2023/09/19 11:06:15;;;;;;;1.97;1.50;;;26.10;43.30;;;;;;4987980;28;20964;-47
2023/09/19 11:11:46;;;;;;;2.30;1.70;;;26.50;43.10;;;;;;4994935;28;20437;-45
2023/09/19 11:14:15;;;;;;;2.40;1.30;;;26.60;43.50;;;;;;4985654;28;20504;-46
2023/09/19 11:17:13;;;;;;;1.47;1.37;;;26.50;42.80;;;;;;4988702;28;20493;-46
2023/09/19 11:22:51;;;;;;;2.43;1.30;;;26.60;41.90;;;;;;4988160;28;20461;-46
2023/09/19 11:25:34;;;;;;;2.03;1.10;;;26.80;41.30;;;;;;4980849;28;21325;-46
2023/09/19 11:28:05;;;;;;;1.37;1.27;;;26.50;41.40;;;;;;4991428;28;20507;-46
2023/09/19 11:30:36;;;;;;;2.80;1.37;;;26.10;42.00;;;;;;4993336;28;20904;-48
2023/09/19 11:33:28;;;;;;;1.23;1.13;;;26.00;42.00;;;;;;4987907;28;20885;-46
2023/09/19 11:36:12;;;;;;;1.67;1.30;;;26.10;42.30;;;;;;4990679;28;20477;-48
2023/09/19 11:41:21;;;;;;;2.40;1.47;;;26.30;41.20;;;;;;4980243;28;20457;-47
2023/09/19 11:43:47;;;;;;;1.40;1.30;;;26.60;42.00;;;;;;4988419;28;20928;-47
2023/09/19 11:46:16;;;;;;;0.90;0.90;;;26.70;41.70;;;;;;4985150;28;20991;-46
2023/09/19 11:48:44;;;;;;;1.20;1.10;;;26.60;41.30;;;;;;4984990;28;20450;-46
2023/09/19 11:51:19;;;;;;;1.57;1.10;;;26.60;40.80;;;;;;4989926;28;20450;-46
2023/09/19 11:53:55;;;;;;;1.63;1.27;;;26.70;40.80;;;;;;4992148;28;20484;-46
2023/09/19 11:56:24;;;;;;;1.50;1.27;;;27.10;40.10;;;;;;4993256;28;20520;-46
2023/09/19 11:58:54;;;;;;;1.40;1.30;;;27.30;39.40;;;;;;4992036;28;20797;-45
2023/09/19 12:01:29;;;;;;;1.80;1.43;;;27.20;38.30;;;;;;4989587;28;20496;-45
2023/09/19 12:03:57;;;;;;;1.47;1.40;;;26.90;38.20;;;;;;4988930;28;20500;-45
2023/09/19 12:06:24;;;;;;;1.60;1.40;;;26.50;39.20;;;;;;4990021;28;20937;-49
2023/09/19 12:08:53;;;;;;;2.77;1.43;;;26.20;39.30;;;;;;4988972;28;20461;-45
2023/09/19 12:11:20;;;;;;;2.50;1.17;;;26.20;39.60;;;;;;4990158;28;20458;-46
2023/09/19 12:13:48;;;;;;;1.60;1.27;;;25.90;39.70;;;;;;4984200;28;20532;-44
2023/09/19 12:16:21;;;;;;;3.50;1.50;;;25.90;40.80;;;;;;4985044;28;20489;-43
2023/09/19 12:18:47;;;;;;;1.67;1.00;;;26.00;40.20;;;;;;4990167;28;20429;-45
2023/09/19 12:21:27;;;;;;;1.30;1.20;;;26.30;40.70;;;;;;4989884;28;20450;-45
2023/09/19 12:24:04;;;;;;;2.57;1.63;;;26.50;40.40;;;;;;4992189;28;20860;-43
2023/09/19 12:26:37;;;;;;;2.33;1.40;;;26.40;39.80;;;;;;4989708;28;20454;-44
2023/09/19 12:29:04;;;;;;;1.27;1.07;;;26.10;39.70;;;;;;4991434;28;20522;-44
2023/09/19 12:31:36;;;;;;;2.17;1.30;;;26.10;41.10;;;;;;4991373;28;21027;-43
2023/09/19 12:34:02;;;;;;;2.13;1.20;;;26.20;40.70;;;;;;4986127;28;20446;-44
2023/09/19 12:36:30;;;;;;;1.33;1.23;;;26.30;40.40;;;;;;4986120;28;20485;-46
2023/09/19 12:38:59;;;;;;;1.20;1.10;;;26.50;41.00;;;;;;4989787;28;20199;-44
2023/09/19 12:41:28;;;;;;;1.77;1.37;;;26.70;40.60;;;;;;4991550;28;20850;-45
2023/09/19 12:43:54;;;;;;;1.47;1.20;;;26.80;40.40;;;;;;4990474;28;20799;-46
2023/09/19 12:46:25;;;;;;;5.53;1.43;;;26.90;41.00;;;;;;4990031;28;20446;-45
2023/09/19 12:49:19;;;;;;;1.73;1.63;;;27.00;40.50;;;;;;4982208;28;20676;-45
2023/09/19 12:51:49;;;;;;;2.83;1.63;;;26.80;40.50;;;;;;4989367;28;20866;-47
2023/09/19 12:54:16;;;;;;;1.50;1.30;;;27.00;40.90;;;;;;4988174;28;20445;-46
2023/09/19 12:56:44;;;;;;;1.23;1.13;;;26.90;40.20;;;;;;4990420;28;20486;-45
2023/09/19 12:59:14;;;;;;;1.43;1.33;;;26.90;40.10;;;;;;4992497;28;20434;-45
2023/09/19 13:01:43;;;;;;;1.70;1.60;;;27.00;39.40;;;;;;4984763;28;20442;-45
2023/09/19 13:04:20;;;;;;;1.20;1.10;;;27.00;40.10;;;;;;4982238;28;20442;-44
2023/09/19 13:06:48;;;;;;;1.50;1.40;;;27.00;40.60;;;;;;4989906;28;20457;-45
2023/09/19 13:09:15;;;;;;;3.83;1.30;;;27.10;39.70;;;;;;4989764;28;20500;-45
2023/09/19 13:11:43;;;;;;;2.07;1.20;;;27.20;39.90;;;;;;4987395;28;20446;-45